createdAt,value
2018-10-03T00:00:37.774Z,11.33
2018-10-03T00:01:38.114Z,11.33
2018-10-03T00:02:38.342Z,11.32
2018-10-03T00:03:38.683Z,11.32
2018-10-03T00:04:39.015Z,11.32
2018-10-03T00:05:39.356Z,11.32
2018-10-03T00:06:39.671Z,11.32
2018-10-03T00:07:39.994Z,11.32
2018-10-03T00:08:40.329Z,11.32
2018-10-03T00:09:40.705Z,11.32
2018-10-03T00:10:40.961Z,11.32
2018-10-03T00:11:41.240Z,11.32
2018-10-03T00:12:41.667Z,11.32
2018-10-03T00:13:42.458Z,11.32
2018-10-03T00:14:42.686Z,11.32
2018-10-03T00:15:43.003Z,11.32
2018-10-03T00:16:43.279Z,11.33
2018-10-03T00:17:43.535Z,11.33
2018-10-03T00:18:43.942Z,11.33
2018-10-03T00:19:44.337Z,11.33
2018-10-03T00:20:44.563Z,11.33
2018-10-03T00:21:45.153Z,11.33
2018-10-03T00:22:45.407Z,11.34
2018-10-03T00:23:45.464Z,11.34
2018-10-03T00:24:45.724Z,11.34
2018-10-03T00:25:45.945Z,11.34
2018-10-03T00:26:46.434Z,11.33
2018-10-03T00:27:46.750Z,11.34
2018-10-03T00:27:54.800Z,11.43
2018-10-03T00:28:56.187Z,11.41
2018-10-03T00:29:56.502Z,11.41
2018-10-03T00:30:55.756Z,11.41
2018-10-03T00:31:56.978Z,11.41
2018-10-03T00:32:57.292Z,11.41
2018-10-03T00:33:57.588Z,11.41
2018-10-03T00:34:57.842Z,11.41
2018-10-03T00:35:58.096Z,11.41
2018-10-03T00:36:58.326Z,11.41
2018-10-03T00:37:58.544Z,11.41
2018-10-03T00:38:58.775Z,11.41
2018-10-03T00:39:58.986Z,11.42
2018-10-03T00:40:59.409Z,11.42
2018-10-03T00:41:59.676Z,11.42
2018-10-03T00:42:59.988Z,11.43
2018-10-03T00:44:00.340Z,11.43
2018-10-03T00:45:00.642Z,11.44
2018-10-03T00:46:01.170Z,11.44
2018-10-03T00:47:00.311Z,11.45
2018-10-03T00:48:00.743Z,11.45
2018-10-03T00:49:01.029Z,11.46
2018-10-03T00:50:01.692Z,11.46
2018-10-03T00:51:02.137Z,11.47
2018-10-03T00:52:02.398Z,11.48
2018-10-03T00:53:02.828Z,11.48
2018-10-03T00:54:02.855Z,11.49
2018-10-03T00:55:03.726Z,11.49
2018-10-03T00:56:04.404Z,11.50
2018-10-03T00:57:05.306Z,11.50
2018-10-03T00:58:06.782Z,11.51
2018-10-03T00:59:06.564Z,11.52
2018-10-03T01:00:06.880Z,11.53
2018-10-03T01:01:07.527Z,11.53
2018-10-03T01:02:08.424Z,11.54
2018-10-03T01:03:08.969Z,11.54
2018-10-03T01:04:09.646Z,11.54
2018-10-03T01:05:10.406Z,11.54
2018-10-03T01:06:10.868Z,11.55
2018-10-03T01:07:11.346Z,11.55
2018-10-03T01:08:12.017Z,11.56
2018-10-03T01:09:12.694Z,11.57
2018-10-03T01:10:13.325Z,11.57
2018-10-03T01:11:14.050Z,11.58
2018-10-03T01:12:14.328Z,11.59
2018-10-03T01:13:14.847Z,11.59
2018-10-03T01:14:15.655Z,11.60
2018-10-03T01:15:15.804Z,11.61
2018-10-03T01:16:16.152Z,11.61
2018-10-03T01:17:16.869Z,11.62
2018-10-03T01:18:17.538Z,11.63
2018-10-03T01:19:18.516Z,11.64
2018-10-03T01:20:18.968Z,11.65
2018-10-03T01:21:19.470Z,11.65
2018-10-03T01:22:19.497Z,11.66
2018-10-03T01:23:19.762Z,11.67
2018-10-03T01:24:20.017Z,11.67
2018-10-03T01:25:20.119Z,11.68
2018-10-03T01:26:20.204Z,11.68
2018-10-03T01:27:20.556Z,11.68
2018-10-03T01:28:21.011Z,11.69
2018-10-03T01:29:21.597Z,11.69
2018-10-03T01:30:22.081Z,11.70
2018-10-03T01:31:23.748Z,11.70
2018-10-03T01:32:23.064Z,11.70
2018-10-03T01:33:23.981Z,11.70
2018-10-03T01:34:24.645Z,11.71
2018-10-03T01:35:25.133Z,11.71
2018-10-03T01:36:26.134Z,11.71
2018-10-03T01:37:26.762Z,11.71
2018-10-03T01:38:27.661Z,11.71
2018-10-03T01:39:27.916Z,11.71
2018-10-03T01:40:28.498Z,11.70
2018-10-03T01:41:28.856Z,11.70
2018-10-03T01:42:29.405Z,11.69
2018-10-03T01:43:29.952Z,11.69
2018-10-03T01:44:30.823Z,11.69
2018-10-03T01:45:31.351Z,11.69
2018-10-03T01:46:31.898Z,11.69
2018-10-03T01:47:32.642Z,11.68
2018-10-03T01:48:32.676Z,11.68
2018-10-03T01:49:33.517Z,11.68
2018-10-03T01:50:33.799Z,11.68
2018-10-03T01:51:33.919Z,11.68
2018-10-03T01:52:34.425Z,11.68
2018-10-03T01:53:35.172Z,11.68
2018-10-03T01:54:36.279Z,11.68
2018-10-03T01:55:36.923Z,11.68
2018-10-03T01:56:37.032Z,11.68
2018-10-03T01:57:37.645Z,11.68
2018-10-03T01:58:38.295Z,11.69
2018-10-03T01:59:38.840Z,11.69
2018-10-03T02:00:39.347Z,11.69
2018-10-03T02:01:40.012Z,11.68
2018-10-03T02:02:40.495Z,11.68
2018-10-03T02:03:41.466Z,11.68
2018-10-03T02:04:42.201Z,11.68
2018-10-03T02:05:42.658Z,11.68
2018-10-03T02:06:43.431Z,11.68
2018-10-03T02:07:43.957Z,11.67
2018-10-03T02:08:44.341Z,11.67
2018-10-03T02:09:47.070Z,11.67
2018-10-03T02:10:45.640Z,11.67
2018-10-03T02:11:46.580Z,11.66
2018-10-03T02:12:47.010Z,11.66
2018-10-03T02:13:47.646Z,11.66
2018-10-03T02:14:48.268Z,11.66
2018-10-03T02:15:48.521Z,11.66
2018-10-03T02:16:49.245Z,11.65
2018-10-03T02:17:50.505Z,11.65
2018-10-03T02:18:50.977Z,11.65
2018-10-03T02:19:51.434Z,11.64
2018-10-03T02:19:59.500Z,11.69
2018-10-03T02:21:00.729Z,11.67
2018-10-03T02:22:00.978Z,11.67
2018-10-03T02:23:01.235Z,11.67
2018-10-03T02:24:01.695Z,11.67
2018-10-03T02:25:01.972Z,11.68
2018-10-03T02:26:02.239Z,11.68
2018-10-03T02:27:02.433Z,11.69
2018-10-03T02:28:02.608Z,11.69
2018-10-03T02:29:02.810Z,11.69
2018-10-03T02:30:03.055Z,11.70
2018-10-03T02:31:03.318Z,11.70
2018-10-03T02:32:03.575Z,11.70
2018-10-03T02:33:03.756Z,11.71
2018-10-03T02:34:03.941Z,11.71
2018-10-03T02:35:04.231Z,11.71
2018-10-03T02:36:04.556Z,11.71
2018-10-03T02:37:04.742Z,11.71
2018-10-03T02:38:05.326Z,11.71
2018-10-03T02:39:05.805Z,11.71
2018-10-03T02:40:06.067Z,11.71
2018-10-03T02:41:06.353Z,11.71
2018-10-03T02:42:06.597Z,11.71
2018-10-03T02:43:06.814Z,11.71
2018-10-03T02:44:07.173Z,11.71
2018-10-03T02:45:07.584Z,11.71
2018-10-03T02:46:07.983Z,11.71
2018-10-03T02:47:08.237Z,11.71
2018-10-03T02:48:08.716Z,11.70
2018-10-03T02:49:09.207Z,11.70
2018-10-03T02:50:09.555Z,11.70
2018-10-03T02:51:09.881Z,11.69
2018-10-03T02:52:10.108Z,11.68
2018-10-03T02:53:10.512Z,11.68
2018-10-03T02:54:11.430Z,11.67
2018-10-03T02:55:11.772Z,11.67
2018-10-03T02:56:12.132Z,11.67
2018-10-03T02:57:13.065Z,11.66
2018-10-03T02:58:13.437Z,11.66
2018-10-03T02:59:13.763Z,11.66
2018-10-03T03:00:14.103Z,11.66
2018-10-03T03:01:14.391Z,11.66
2018-10-03T03:02:14.631Z,11.66
2018-10-03T03:03:13.888Z,11.67
2018-10-03T03:04:15.265Z,11.66
2018-10-03T03:05:15.572Z,11.67
2018-10-03T03:05:24.543Z,11.68
2018-10-03T03:06:25.836Z,11.66
2018-10-03T03:07:26.316Z,11.66
2018-10-03T03:08:26.691Z,11.66
2018-10-03T03:09:25.867Z,11.66
2018-10-03T03:10:27.291Z,11.66
2018-10-03T03:11:27.486Z,11.66
2018-10-03T03:12:27.723Z,11.66
2018-10-03T03:13:27.896Z,11.66
2018-10-03T03:14:28.354Z,11.66
2018-10-03T03:15:28.723Z,11.66
2018-10-03T03:16:29.325Z,11.66
2018-10-03T03:17:29.509Z,11.66
2018-10-03T03:18:29.727Z,11.66
2018-10-03T03:19:30.153Z,11.65
2018-10-03T03:20:30.428Z,11.65
2018-10-03T03:21:30.878Z,11.64
2018-10-03T03:22:31.110Z,11.64
2018-10-03T03:23:31.472Z,11.64
2018-10-03T03:24:31.869Z,11.63
2018-10-03T03:25:32.280Z,11.62
2018-10-03T03:26:32.517Z,11.61
2018-10-03T03:27:32.847Z,11.61
2018-10-03T03:28:33.061Z,11.60
2018-10-03T03:29:33.286Z,11.59
2018-10-03T03:30:33.565Z,11.58
2018-10-03T03:31:33.879Z,11.57
2018-10-03T03:32:34.222Z,11.56
2018-10-03T03:33:34.701Z,11.55
2018-10-03T03:34:35.477Z,11.54
2018-10-03T03:35:35.777Z,11.53
2018-10-03T03:36:36.018Z,11.52
2018-10-03T03:37:36.260Z,11.51
2018-10-03T03:38:36.514Z,11.50
2018-10-03T03:39:36.844Z,11.49
2018-10-03T03:40:37.040Z,11.48
2018-10-03T03:41:37.347Z,11.47
2018-10-03T03:42:37.770Z,11.46
2018-10-03T03:43:38.154Z,11.44
2018-10-03T03:44:38.432Z,11.43
2018-10-03T03:45:38.779Z,11.42
2018-10-03T03:46:39.215Z,11.41
2018-10-03T03:47:39.684Z,11.40
2018-10-03T03:48:39.966Z,11.39
2018-10-03T03:48:48.379Z,11.31
2018-10-03T03:49:49.824Z,11.28
2018-10-03T03:50:50.110Z,11.27
2018-10-03T03:51:50.320Z,11.27
2018-10-03T03:52:50.507Z,11.27
2018-10-03T03:53:50.745Z,11.27
2018-10-03T03:54:51.035Z,11.27
2018-10-03T03:55:51.284Z,11.27
2018-10-03T03:56:51.634Z,11.27
2018-10-03T03:57:51.932Z,11.27
2018-10-03T03:58:52.318Z,11.27
2018-10-03T03:59:52.622Z,11.27
2018-10-03T04:00:52.977Z,11.27
2018-10-03T04:01:53.380Z,11.27
2018-10-03T04:02:53.641Z,11.27
2018-10-03T04:03:53.911Z,11.27
2018-10-03T04:04:54.127Z,11.27
2018-10-03T04:05:54.417Z,11.27
2018-10-03T04:06:55.283Z,11.27
2018-10-03T04:07:55.663Z,11.27
2018-10-03T04:08:56.109Z,11.27
2018-10-03T04:09:56.492Z,11.28
2018-10-03T04:10:56.719Z,11.28
2018-10-03T04:11:57.337Z,11.28
2018-10-03T04:12:57.722Z,11.28
2018-10-03T04:13:57.945Z,11.28
2018-10-03T04:14:58.291Z,11.28
2018-10-03T04:15:58.562Z,11.28
2018-10-03T04:16:58.876Z,11.28
2018-10-03T04:17:59.148Z,11.28
2018-10-03T04:18:59.460Z,11.29
2018-10-03T04:19:59.968Z,11.28
2018-10-03T04:21:00.360Z,11.28
2018-10-03T04:22:00.788Z,11.27
2018-10-03T04:23:01.274Z,11.26
2018-10-03T04:24:01.704Z,11.26
2018-10-03T04:25:01.944Z,11.25
2018-10-03T04:26:02.230Z,11.24
2018-10-03T04:27:02.540Z,11.23
2018-10-03T04:28:02.853Z,11.22
2018-10-03T04:29:03.078Z,11.21
2018-10-03T04:30:03.268Z,11.21
2018-10-03T04:31:03.633Z,11.20
2018-10-03T04:31:11.684Z,11.13
2018-10-03T04:32:13.199Z,11.12
2018-10-03T04:33:13.527Z,11.11
2018-10-03T04:34:14.066Z,11.11
2018-10-03T04:35:14.431Z,11.11
2018-10-03T04:36:14.845Z,11.11
2018-10-03T04:37:15.398Z,11.10
2018-10-03T04:38:15.815Z,11.10
2018-10-03T04:39:15.827Z,11.10
2018-10-03T04:40:16.107Z,11.09
2018-10-03T04:41:16.382Z,11.09
2018-10-03T04:42:16.915Z,11.08
2018-10-03T04:43:16.101Z,11.07
2018-10-03T04:44:17.377Z,11.06
2018-10-03T04:45:17.780Z,11.06
2018-10-03T04:46:18.148Z,11.05
2018-10-03T04:47:18.398Z,11.05
2018-10-03T04:48:18.743Z,11.05
2018-10-03T04:49:19.080Z,11.05
2018-10-03T04:50:19.671Z,11.05
2018-10-03T04:51:19.978Z,11.04
2018-10-03T04:52:20.314Z,11.04
2018-10-03T04:53:20.571Z,11.04
2018-10-03T04:54:20.932Z,11.04
2018-10-03T04:55:21.272Z,11.03
2018-10-03T04:56:21.812Z,11.03
2018-10-03T04:57:22.456Z,11.03
2018-10-03T04:58:22.682Z,11.02
2018-10-03T04:59:22.917Z,11.02
2018-10-03T05:00:23.314Z,11.02
2018-10-03T05:01:23.688Z,11.01
2018-10-03T05:02:24.116Z,11.01
2018-10-03T05:03:24.391Z,11.01
2018-10-03T05:04:24.631Z,11.01
2018-10-03T05:05:25.230Z,11.01
2018-10-03T05:06:25.733Z,11.01
2018-10-03T05:07:26.015Z,11.01
2018-10-03T05:08:26.483Z,11.00
2018-10-03T05:09:26.695Z,11.01
2018-10-03T05:10:26.999Z,11.00
2018-10-03T05:11:27.362Z,11.00
2018-10-03T05:12:26.591Z,11.00
2018-10-03T05:13:27.928Z,11.00
2018-10-03T05:14:28.204Z,10.99
2018-10-03T05:15:28.559Z,10.99
2018-10-03T05:16:29.070Z,10.98
2018-10-03T05:16:37.118Z,10.96
2018-10-03T05:17:38.399Z,10.94
2018-10-03T05:18:38.628Z,10.94
2018-10-03T05:19:38.831Z,10.94
2018-10-03T05:20:39.133Z,10.94
2018-10-03T05:21:39.428Z,10.95
2018-10-03T05:22:39.672Z,10.95
2018-10-03T05:23:39.974Z,10.95
2018-10-03T05:24:40.193Z,10.95
2018-10-03T05:25:40.565Z,10.95
2018-10-03T05:26:40.817Z,10.95
2018-10-03T05:27:41.114Z,10.95
2018-10-03T05:28:40.557Z,10.95
2018-10-03T05:29:41.625Z,10.95
2018-10-03T05:30:41.839Z,10.95
2018-10-03T05:31:42.323Z,10.95
2018-10-03T05:32:42.694Z,10.94
2018-10-03T05:33:42.891Z,10.94
2018-10-03T05:34:43.145Z,10.93
2018-10-03T05:35:43.392Z,10.92
2018-10-03T05:36:43.801Z,10.92
2018-10-03T05:37:44.191Z,10.91
2018-10-03T05:38:44.514Z,10.90
2018-10-03T05:39:44.810Z,10.90
2018-10-03T05:40:44.117Z,10.89
2018-10-03T05:41:45.392Z,10.88
2018-10-03T05:42:45.833Z,10.87
2018-10-03T05:43:46.234Z,10.87
2018-10-03T05:44:46.680Z,10.87
2018-10-03T05:45:47.034Z,10.86
2018-10-03T05:46:47.254Z,10.86
2018-10-03T05:47:47.648Z,10.85
2018-10-03T05:48:48.070Z,10.85
2018-10-03T05:49:47.301Z,10.84
2018-10-03T05:50:48.575Z,10.84
2018-10-03T05:51:48.854Z,10.84
2018-10-03T05:52:49.147Z,10.83
2018-10-03T05:53:49.386Z,10.83
2018-10-03T05:54:49.658Z,10.83
2018-10-03T05:55:48.958Z,10.82
2018-10-03T05:56:50.212Z,10.82
2018-10-03T05:57:50.488Z,10.82
2018-10-03T05:58:50.840Z,10.82
2018-10-03T05:59:51.305Z,10.81
2018-10-03T06:00:51.667Z,10.81
2018-10-03T06:01:52.064Z,10.81
2018-10-03T06:02:52.431Z,10.81
2018-10-03T06:03:51.620Z,10.80
2018-10-03T06:03:59.908Z,10.68
2018-10-03T06:05:01.358Z,10.65
2018-10-03T06:06:01.592Z,10.65
2018-10-03T06:07:01.883Z,10.65
2018-10-03T06:08:02.135Z,10.65
2018-10-03T06:09:02.515Z,10.65
2018-10-03T06:10:02.728Z,10.65
2018-10-03T06:11:03.277Z,10.66
2018-10-03T06:12:03.516Z,10.65
2018-10-03T06:13:03.880Z,10.65
2018-10-03T06:14:04.114Z,10.64
2018-10-03T06:15:04.347Z,10.64
2018-10-03T06:16:04.744Z,10.64
2018-10-03T06:17:04.980Z,10.64
2018-10-03T06:18:05.285Z,10.64
2018-10-03T06:19:05.550Z,10.63
2018-10-03T06:20:05.772Z,10.63
2018-10-03T06:21:05.823Z,10.63
2018-10-03T06:22:06.053Z,10.62
2018-10-03T06:23:06.331Z,10.62
2018-10-03T06:24:07.069Z,10.62
2018-10-03T06:25:07.331Z,10.62
2018-10-03T06:26:07.736Z,10.62
2018-10-03T06:27:08.022Z,10.62
2018-10-03T06:28:08.574Z,10.61
2018-10-03T06:29:08.961Z,10.60
2018-10-03T06:30:09.321Z,10.60
2018-10-03T06:31:09.788Z,10.59
2018-10-03T06:32:10.382Z,10.59
2018-10-03T06:33:10.668Z,10.58
2018-10-03T06:34:10.875Z,10.58
2018-10-03T06:35:11.137Z,10.57
2018-10-03T06:36:11.490Z,10.56
2018-10-03T06:37:11.807Z,10.55
2018-10-03T06:38:12.190Z,10.55
2018-10-03T06:39:12.583Z,10.54
2018-10-03T06:40:12.951Z,10.54
2018-10-03T06:41:12.267Z,10.53
2018-10-03T06:42:13.651Z,10.53
2018-10-03T06:43:13.893Z,10.53
2018-10-03T06:44:14.195Z,10.53
2018-10-03T06:45:14.467Z,10.54
2018-10-03T06:46:15.175Z,10.55
2018-10-03T06:47:15.422Z,10.56
2018-10-03T06:48:15.681Z,10.57
2018-10-03T06:48:24.085Z,10.76
2018-10-03T06:49:25.353Z,10.74
2018-10-03T06:50:25.702Z,10.74
2018-10-03T06:51:25.972Z,10.74
2018-10-03T06:52:26.288Z,10.75
2018-10-03T06:53:26.518Z,10.76
2018-10-03T06:54:27.310Z,10.76
2018-10-03T06:55:27.526Z,10.77
2018-10-03T06:56:27.775Z,10.78
2018-10-03T06:57:28.130Z,10.79
2018-10-03T06:58:28.420Z,10.80
2018-10-03T06:59:28.698Z,10.80
2018-10-03T07:00:28.960Z,10.81
2018-10-03T07:01:29.367Z,10.81
2018-10-03T07:02:29.638Z,10.82
2018-10-03T07:03:29.950Z,10.82
2018-10-03T07:04:30.661Z,10.82
2018-10-03T07:05:30.933Z,10.83
2018-10-03T07:06:31.346Z,10.83
2018-10-03T07:07:31.650Z,10.84
2018-10-03T07:08:31.957Z,10.84
2018-10-03T07:09:32.275Z,10.84
2018-10-03T07:10:32.692Z,10.85
2018-10-03T07:11:32.985Z,10.86
2018-10-03T07:12:33.365Z,10.86
2018-10-03T07:13:33.625Z,10.87
2018-10-03T07:14:33.831Z,10.88
2018-10-03T07:15:34.297Z,10.88
2018-10-03T07:16:34.576Z,10.89
2018-10-03T07:17:35.052Z,10.89
2018-10-03T07:18:35.417Z,10.90
2018-10-03T07:19:35.769Z,10.91
2018-10-03T07:20:35.986Z,10.91
2018-10-03T07:21:36.384Z,10.92
2018-10-03T07:22:36.695Z,10.93
2018-10-03T07:23:36.946Z,10.94
2018-10-03T07:24:37.176Z,10.95
2018-10-03T07:25:37.660Z,10.96
2018-10-03T07:26:37.943Z,10.97
2018-10-03T07:27:38.824Z,10.99
2018-10-03T07:28:39.188Z,11.00
2018-10-03T07:29:39.398Z,11.01
2018-10-03T07:30:39.799Z,11.02
2018-10-03T07:31:40.149Z,11.03
2018-10-03T07:31:48.560Z,11.29
2018-10-03T07:32:49.832Z,11.27
2018-10-03T07:33:50.239Z,11.27
2018-10-03T07:34:50.529Z,11.27
2018-10-03T07:35:50.808Z,11.27
2018-10-03T07:36:51.127Z,11.28
2018-10-03T07:37:51.350Z,11.28
2018-10-03T07:38:51.663Z,11.29
2018-10-03T07:39:51.874Z,11.30
2018-10-03T07:40:52.198Z,11.30
2018-10-03T07:41:52.466Z,11.31
2018-10-03T07:42:52.760Z,11.33
2018-10-03T07:43:53.116Z,11.34
2018-10-03T07:44:53.714Z,11.36
2018-10-03T07:45:53.960Z,11.38
2018-10-03T07:46:54.345Z,11.40
2018-10-03T07:47:54.857Z,11.42
2018-10-03T07:48:54.166Z,11.45
2018-10-03T07:49:55.749Z,11.48
2018-10-03T07:50:56.160Z,11.51
2018-10-03T07:51:56.429Z,11.53
2018-10-03T07:52:56.917Z,11.56
2018-10-03T07:53:57.257Z,11.58
2018-10-03T07:54:57.608Z,11.61
2018-10-03T07:55:58.091Z,11.63
2018-10-03T07:56:58.311Z,11.66
2018-10-03T07:57:58.614Z,11.68
2018-10-03T07:58:59.087Z,11.70
2018-10-03T07:59:58.224Z,11.72
2018-10-03T08:00:59.618Z,11.74
2018-10-03T08:01:59.991Z,11.75
2018-10-03T08:03:00.327Z,11.76
2018-10-03T08:04:00.895Z,11.77
2018-10-03T08:05:01.198Z,11.78
2018-10-03T08:06:01.662Z,11.79
2018-10-03T08:07:02.543Z,11.80
2018-10-03T08:08:02.847Z,11.81
2018-10-03T08:09:03.174Z,11.81
2018-10-03T08:10:03.342Z,11.82
2018-10-03T08:11:02.516Z,11.83
2018-10-03T08:12:03.790Z,11.84
2018-10-03T08:13:04.274Z,11.85
2018-10-03T08:14:04.568Z,11.86
2018-10-03T08:15:04.866Z,11.87
2018-10-03T08:16:05.280Z,11.88
2018-10-03T08:17:05.594Z,11.90
2018-10-03T08:18:05.605Z,11.92
2018-10-03T08:19:06.017Z,11.94
2018-10-03T08:19:14.098Z,12.33
2018-10-03T08:20:15.507Z,12.30
2018-10-03T08:21:15.984Z,12.30
2018-10-03T08:22:16.202Z,12.31
2018-10-03T08:23:16.697Z,12.32
2018-10-03T08:24:17.419Z,12.33
2018-10-03T08:25:17.824Z,12.34
2018-10-03T08:26:18.187Z,12.36
2018-10-03T08:27:18.516Z,12.38
2018-10-03T08:28:18.738Z,12.40
2018-10-03T08:29:19.191Z,12.43
2018-10-03T08:30:19.470Z,12.45
2018-10-03T08:31:19.744Z,12.49
2018-10-03T08:32:20.029Z,12.53
2018-10-03T08:33:19.523Z,12.56
2018-10-03T08:34:19.991Z,12.60
2018-10-03T08:35:21.374Z,12.63
2018-10-03T08:36:21.771Z,12.67
2018-10-03T08:37:22.393Z,12.71
2018-10-03T08:38:22.752Z,12.74
2018-10-03T08:39:23.307Z,12.79
2018-10-03T08:40:24.041Z,12.84
2018-10-03T08:41:24.308Z,12.90
2018-10-03T08:42:24.636Z,12.96
2018-10-03T08:43:24.745Z,13.03
2018-10-03T08:44:25.292Z,13.08
2018-10-03T08:45:25.631Z,13.12
2018-10-03T08:46:25.081Z,13.16
2018-10-03T08:47:26.410Z,13.19
2018-10-03T08:48:26.701Z,13.22
2018-10-03T08:49:27.063Z,13.24
2018-10-03T08:50:27.385Z,13.27
2018-10-03T08:51:27.697Z,13.30
2018-10-03T08:52:28.148Z,13.33
2018-10-03T08:53:29.141Z,13.36
2018-10-03T08:54:29.402Z,13.39
2018-10-03T08:55:29.797Z,13.42
2018-10-03T08:56:30.082Z,13.46
2018-10-03T08:57:30.502Z,13.51
2018-10-03T08:58:31.389Z,13.57
2018-10-03T08:59:30.498Z,13.62
2018-10-03T09:00:31.866Z,13.68
2018-10-03T09:01:32.244Z,13.75
2018-10-03T09:02:32.478Z,13.82
2018-10-03T09:03:32.684Z,13.88
2018-10-03T09:04:33.044Z,13.97
2018-10-03T09:05:33.389Z,14.06
2018-10-03T09:06:33.660Z,14.14
2018-10-03T09:07:33.870Z,14.21
2018-10-03T09:07:42.194Z,15.40
2018-10-03T09:08:43.376Z,15.38
2018-10-03T09:09:43.587Z,15.38
2018-10-03T09:10:43.756Z,15.38
2018-10-03T09:11:44.052Z,15.37
2018-10-03T09:12:43.186Z,15.37
2018-10-03T09:13:44.449Z,15.36
2018-10-03T09:14:44.738Z,15.36
2018-10-03T09:15:45.143Z,15.36
2018-10-03T09:16:45.421Z,15.36
2018-10-03T09:17:45.670Z,15.36
2018-10-03T09:18:46.064Z,15.36
2018-10-03T09:19:46.317Z,15.35
2018-10-03T09:20:46.798Z,15.35
2018-10-03T09:21:47.201Z,15.34
2018-10-03T09:22:46.383Z,15.33
2018-10-03T09:23:47.786Z,15.32
2018-10-03T09:24:48.165Z,15.30
2018-10-03T09:25:48.461Z,15.28
2018-10-03T09:26:49.308Z,15.26
2018-10-03T09:27:49.650Z,15.23
2018-10-03T09:28:50.209Z,15.19
2018-10-03T09:29:50.545Z,15.15
2018-10-03T09:30:50.863Z,15.11
2018-10-03T09:31:51.145Z,15.07
2018-10-03T09:32:51.440Z,15.04
2018-10-03T09:33:51.863Z,15.00
2018-10-03T09:34:52.159Z,14.96
2018-10-03T09:35:52.571Z,14.92
2018-10-03T09:36:52.774Z,14.89
2018-10-03T09:37:53.053Z,14.85
2018-10-03T09:38:53.518Z,14.82
2018-10-03T09:39:53.786Z,14.79
2018-10-03T09:40:54.259Z,14.77
2018-10-03T09:41:54.461Z,14.74
2018-10-03T09:42:54.648Z,14.72
2018-10-03T09:43:54.945Z,14.70
2018-10-03T09:44:53.999Z,14.71
2018-10-03T09:45:55.491Z,14.73
2018-10-03T09:46:55.873Z,14.77
2018-10-03T09:47:56.086Z,14.81
2018-10-03T09:48:56.338Z,14.85
2018-10-03T09:49:56.854Z,14.88
2018-10-03T09:50:57.156Z,14.92
2018-10-03T09:51:57.451Z,14.94
2018-10-03T09:52:57.742Z,14.96
2018-10-03T09:53:06.711Z,15.38
2018-10-03T09:54:07.923Z,15.34
2018-10-03T09:55:08.180Z,15.34
2018-10-03T09:56:08.585Z,15.33
2018-10-03T09:57:08.958Z,15.33
2018-10-03T09:58:09.314Z,15.32
2018-10-03T09:59:09.726Z,15.32
2018-10-03T10:00:10.052Z,15.31
2018-10-03T10:01:10.378Z,15.31
2018-10-03T10:02:10.978Z,15.32
2018-10-03T10:03:11.185Z,15.35
2018-10-03T10:04:11.436Z,15.38
2018-10-03T10:05:11.701Z,15.41
2018-10-03T10:06:12.083Z,15.43
2018-10-03T10:07:12.259Z,15.45
2018-10-03T10:08:12.506Z,15.48
2018-10-03T10:09:13.149Z,15.51
2018-10-03T10:10:13.421Z,15.55
2018-10-03T10:11:12.731Z,15.59
2018-10-03T10:12:13.070Z,15.63
2018-10-03T10:13:14.293Z,15.67
2018-10-03T10:14:14.651Z,15.71
2018-10-03T10:15:14.893Z,15.74
2018-10-03T10:16:15.386Z,15.77
2018-10-03T10:17:15.767Z,15.80
2018-10-03T10:18:15.996Z,15.83
2018-10-03T10:19:16.074Z,15.86
2018-10-03T10:20:16.293Z,15.90
2018-10-03T10:21:16.602Z,15.93
2018-10-03T10:22:16.856Z,15.96
2018-10-03T10:23:17.091Z,15.98
2018-10-03T10:24:17.267Z,16.00
2018-10-03T10:25:17.490Z,16.01
2018-10-03T10:26:17.799Z,16.02
2018-10-03T10:27:18.085Z,16.03
2018-10-03T10:28:18.339Z,16.04
2018-10-03T10:29:18.742Z,16.04
2018-10-03T10:30:19.067Z,16.04
2018-10-03T10:31:19.366Z,16.02
2018-10-03T10:32:19.709Z,16.01
2018-10-03T10:33:19.169Z,16.00
2018-10-03T10:34:20.467Z,15.98
2018-10-03T10:35:20.487Z,15.97
2018-10-03T10:36:21.000Z,15.96
2018-10-03T10:37:21.296Z,15.95
2018-10-03T10:38:21.925Z,15.94
2018-10-03T10:38:30.260Z,15.97
2018-10-03T10:39:31.616Z,15.95
2018-10-03T10:40:32.048Z,15.95
2018-10-03T10:41:31.565Z,15.95
2018-10-03T10:42:31.950Z,15.96
2018-10-03T10:43:33.558Z,15.97
2018-10-03T10:44:32.635Z,15.99
2018-10-03T10:45:33.893Z,16.01
2018-10-03T10:46:34.129Z,16.04
2018-10-03T10:47:33.334Z,16.06
2018-10-03T10:48:34.626Z,16.09
2018-10-03T10:49:34.968Z,16.11
2018-10-03T10:50:35.134Z,16.13
2018-10-03T10:51:35.672Z,16.16
2018-10-03T10:52:35.992Z,16.18
2018-10-03T10:53:36.241Z,16.19
2018-10-03T10:54:36.532Z,16.21
2018-10-03T10:55:36.801Z,16.23
2018-10-03T10:56:37.179Z,16.25
2018-10-03T10:57:37.580Z,16.28
2018-10-03T10:58:37.844Z,16.31
2018-10-03T10:59:38.454Z,16.33
2018-10-03T11:00:37.688Z,16.36
2018-10-03T11:01:38.993Z,16.38
2018-10-03T11:02:39.267Z,16.40
2018-10-03T11:03:39.736Z,16.41
2018-10-03T11:04:40.153Z,16.42
2018-10-03T11:05:40.393Z,16.43
2018-10-03T11:06:40.830Z,16.44
2018-10-03T11:07:40.108Z,16.46
2018-10-03T11:08:41.422Z,16.49
2018-10-03T11:09:41.688Z,16.51
2018-10-03T11:10:42.021Z,16.54
2018-10-03T11:11:42.414Z,16.57
2018-10-03T11:12:42.710Z,16.58
2018-10-03T11:13:43.083Z,16.60
2018-10-03T11:14:43.440Z,16.61
2018-10-03T11:15:43.986Z,16.63
2018-10-03T11:16:43.173Z,16.64
2018-10-03T11:17:43.449Z,16.65
2018-10-03T11:18:45.199Z,16.67
2018-10-03T11:19:45.827Z,16.67
2018-10-03T11:20:46.226Z,16.67
2018-10-03T11:21:46.693Z,16.67
2018-10-03T11:22:46.961Z,16.68
2018-10-03T11:23:47.643Z,16.68
2018-10-03T11:24:47.046Z,16.67
2018-10-03T11:25:47.301Z,16.66
2018-10-03T11:26:49.240Z,16.65
2018-10-03T11:27:49.600Z,16.63
2018-10-03T11:28:50.061Z,16.61
2018-10-03T11:29:50.576Z,16.59
2018-10-03T11:30:06.276Z,16.31
2018-10-03T11:31:07.817Z,16.29
2018-10-03T11:32:07.190Z,16.29
2018-10-03T11:33:07.583Z,16.29
2018-10-03T11:34:08.901Z,16.28
2018-10-03T11:35:09.172Z,16.27
2018-10-03T11:36:09.522Z,16.25
2018-10-03T11:37:09.872Z,16.23
2018-10-03T11:38:09.792Z,16.22
2018-10-03T11:39:10.039Z,16.21
2018-10-03T11:40:11.321Z,16.20
2018-10-03T11:41:11.629Z,16.19
2018-10-03T11:42:12.115Z,16.18
2018-10-03T11:43:12.535Z,16.18
2018-10-03T11:44:12.817Z,16.18
2018-10-03T11:45:13.128Z,16.18
2018-10-03T11:46:13.432Z,16.18
2018-10-03T11:47:13.831Z,16.19
2018-10-03T11:48:14.315Z,16.20
2018-10-03T11:49:14.565Z,16.20
2018-10-03T11:50:14.796Z,16.20
2018-10-03T11:51:15.021Z,16.20
2018-10-03T11:52:15.486Z,16.20
2018-10-03T11:53:15.938Z,16.21
2018-10-03T11:54:16.181Z,16.21
2018-10-03T11:55:16.608Z,16.21
2018-10-03T11:56:16.966Z,16.22
2018-10-03T11:57:17.374Z,16.22
2018-10-03T11:58:17.777Z,16.23
2018-10-03T11:59:18.456Z,16.25
2018-10-03T12:00:18.731Z,16.27
2018-10-03T12:01:19.036Z,16.28
2018-10-03T12:02:19.395Z,16.30
2018-10-03T12:03:19.833Z,16.31
2018-10-03T12:04:19.312Z,16.32
2018-10-03T12:05:20.706Z,16.33
2018-10-03T12:06:21.007Z,16.33
2018-10-03T12:07:21.300Z,16.34
2018-10-03T12:08:21.577Z,16.34
2018-10-03T12:09:22.140Z,16.34
2018-10-03T12:10:21.470Z,16.34
2018-10-03T12:11:22.772Z,16.34
2018-10-03T12:12:23.269Z,16.34
2018-10-03T12:13:23.473Z,16.34
2018-10-03T12:14:24.089Z,16.35
2018-10-03T12:15:24.455Z,16.36
2018-10-03T12:16:25.015Z,16.36
2018-10-03T12:17:25.932Z,16.37
2018-10-03T12:17:35.937Z,16.66
2018-10-03T12:18:36.318Z,16.65
2018-10-03T12:19:37.762Z,16.65
2018-10-03T12:20:38.212Z,16.66
2018-10-03T12:21:38.637Z,16.66
2018-10-03T12:22:39.010Z,16.67
2018-10-03T12:23:39.369Z,16.68
2018-10-03T12:24:38.781Z,16.68
2018-10-03T12:25:40.216Z,16.67
2018-10-03T12:26:40.639Z,16.66
2018-10-03T12:27:40.942Z,16.65
2018-10-03T12:28:41.284Z,16.63
2018-10-03T12:29:41.547Z,16.62
2018-10-03T12:30:44.551Z,16.61
2018-10-03T12:31:41.559Z,16.59
2018-10-03T12:32:43.169Z,16.57
2018-10-03T12:33:43.580Z,16.56
2018-10-03T12:34:42.828Z,16.54
2018-10-03T12:35:44.277Z,16.52
2018-10-03T12:36:44.730Z,16.50
2018-10-03T12:37:45.042Z,16.47
2018-10-03T12:38:45.313Z,16.44
2018-10-03T12:39:45.599Z,16.41
2018-10-03T12:40:45.996Z,16.39
2018-10-03T12:41:46.328Z,16.38
2018-10-03T12:42:46.605Z,16.36
2018-10-03T12:43:46.865Z,16.35
2018-10-03T12:44:47.106Z,16.33